Time;durP1;ratioP1;P1;durP2;ratioP2;P2;SDS_P1;SDS_P2;PMS_P1;PMS_P2;Temp;Humidity;BMP_temperature;BMP_pressure;BME280_temperature;BME280_humidity;BME280_pressure;Samples;Min_cycle;Max_cycle;Signal;HPM_P1;HPM_P2
2022/12/13 00:00:39;;;;;;;30.77;14.02;;;-1.00;99.90;;;-2.28;100.00;99871.78;4170792;28;20030;-75
2022/12/13 00:02:43;;;;;;;28.10;14.48;;;-1.00;99.90;;;-2.25;100.00;99874.16;4169993;28;20493;-75
2022/12/13 00:04:44;;;;;;;27.77;14.13;;;-1.00;99.90;;;-2.28;100.00;99878.69;4169924;28;20025;-75
2022/12/13 00:06:46;;;;;;;27.50;13.75;;;-1.00;99.90;;;-2.22;100.00;99882.63;4153390;28;20036;-75
2022/12/13 00:08:48;;;;;;;28.77;13.25;;;-1.00;99.90;;;-2.24;100.00;99883.56;4170704;28;20056;-75
2022/12/13 00:11:01;;;;;;;26.40;13.88;;;-1.00;99.90;;;-2.25;100.00;99884.50;4171251;28;20018;-75
2022/12/13 00:13:03;;;;;;;26.08;12.88;;;-1.00;99.90;;;-2.21;100.00;99898.03;4169680;28;20021;-75
2022/12/13 00:15:05;;;;;;;24.38;12.88;;;-1.00;99.90;;;-2.14;100.00;99899.31;4170497;28;20037;-75
2022/12/13 00:17:06;;;;;;;30.08;14.73;;;-0.90;99.90;;;-2.17;100.00;99907.25;4156329;28;20033;-75
2022/12/13 00:19:07;;;;;;;27.73;13.75;;;-0.90;99.90;;;-2.14;100.00;99901.06;4171158;28;20021;-75
2022/12/13 00:21:14;;;;;;;27.17;13.90;;;-0.90;99.90;;;-2.19;100.00;99908.28;4171094;28;20060;-75
2022/12/13 00:23:15;;;;;;;28.13;15.20;;;-0.90;99.90;;;-2.12;100.00;99909.56;4169746;28;20418;-75
2022/12/13 00:25:18;;;;;;;29.08;13.80;;;-0.90;99.90;;;-2.15;100.00;99912.34;4170806;28;20059;-75
2022/12/13 00:27:19;;;;;;;27.33;12.75;;;-0.90;99.90;;;-2.24;100.00;99911.97;4171024;28;20021;-75
2022/12/13 00:29:20;;;;;;;26.50;13.93;;;-0.90;99.90;;;-2.15;100.00;99920.88;4169493;28;20099;-75
2022/12/13 00:31:24;;;;;;;29.27;12.93;;;-1.00;99.90;;;-2.12;100.00;99918.13;4170345;28;20527;-75
2022/12/13 00:33:26;;;;;;;25.33;13.18;;;-0.90;99.90;;;-2.12;100.00;99905.19;4169860;28;20029;-75
2022/12/13 00:35:26;;;;;;;27.25;13.07;;;-0.90;99.90;;;-2.14;100.00;99916.56;4170649;28;20056;-75
2022/12/13 00:37:27;;;;;;;27.85;14.20;;;-0.90;99.90;;;-2.19;100.00;99924.59;4170594;28;20034;-75
2022/12/13 00:39:28;;;;;;;23.42;11.75;;;-0.90;99.90;;;-2.20;100.00;99922.94;4170466;28;20021;-75
2022/12/13 00:41:34;;;;;;;24.75;12.75;;;-0.90;99.90;;;-2.17;100.00;99927.09;4169437;28;20044;-75
2022/12/13 00:43:35;;;;;;;32.75;12.98;;;-0.90;99.90;;;-2.17;100.00;99920.16;4170501;28;20033;-75
2022/12/13 00:45:37;;;;;;;24.15;13.35;;;-0.90;99.90;;;-2.12;100.00;99937.97;4169008;28;20029;-75
2022/12/13 00:47:38;;;;;;;24.77;13.68;;;-0.90;99.90;;;-2.13;100.00;99925.97;4169111;28;20026;-75
2022/12/13 00:49:39;;;;;;;27.35;13.80;;;-0.90;99.90;;;-2.03;100.00;99935.63;4169413;28;20097;-75
2022/12/13 00:51:40;;;;;;;28.42;14.10;;;-0.80;99.90;;;-2.02;100.00;99936.47;4152733;28;20026;-75
2022/12/13 00:53:41;;;;;;;30.08;14.73;;;-0.80;99.90;;;-2.05;100.00;99940.06;4164797;28;20492;-75
2022/12/13 00:55:41;;;;;;;25.08;11.98;;;-0.80;99.90;;;-2.04;100.00;99930.56;4170195;28;20021;-75
2022/12/13 00:57:42;;;;;;;27.60;13.25;;;-0.80;99.90;;;-2.08;100.00;99927.34;4169023;28;20040;-75
2022/12/13 00:59:43;;;;;;;23.90;12.93;;;-0.80;99.90;;;-2.02;100.00;99919.22;4168825;28;20465;-75
2022/12/13 01:01:44;;;;;;;26.80;13.65;;;-0.80;99.90;;;-2.04;100.00;99907.31;4167786;28;20116;-75
2022/12/13 01:03:45;;;;;;;24.00;12.65;;;-0.80;99.90;;;-2.01;100.00;99904.53;4166567;28;20417;-75
2022/12/13 01:05:47;;;;;;;25.08;13.85;;;-0.70;99.90;;;-2.00;100.00;99919.13;4168973;28;20029;-75
2022/12/13 01:07:47;;;;;;;30.15;14.35;;;-0.70;99.90;;;-2.05;100.00;99913.41;4160992;28;20469;-75
2022/12/13 01:09:48;;;;;;;28.88;14.77;;;-0.70;99.90;;;-2.05;100.00;99906.47;4168747;28;20040;-75
2022/12/13 01:11:50;;;;;;;28.52;14.10;;;-0.70;99.90;;;-2.03;100.00;99903.81;4170055;28;20032;-75
2022/12/13 01:13:51;;;;;;;29.35;15.25;;;-0.70;99.90;;;-2.03;100.00;99908.97;4168768;28;20044;-75
2022/12/13 01:15:52;;;;;;;30.90;14.25;;;-0.80;99.90;;;-2.05;100.00;99884.97;4151922;28;20046;-75
2022/12/13 01:17:52;;;;;;;27.63;14.45;;;-0.70;99.90;;;-2.00;100.00;99890.69;4194742;28;20075;-75
2022/12/13 01:19:53;;;;;;;28.55;13.40;;;-0.70;99.90;;;-2.04;100.00;99891.81;4168665;28;20586;-75
2022/12/13 01:22:03;;;;;;;27.48;13.48;;;-0.70;99.90;;;-2.03;100.00;99883.94;4168771;28;20033;-75
2022/12/13 01:24:05;;;;;;;28.58;15.05;;;-0.70;99.90;;;-2.01;100.00;99887.28;4170008;28;20034;-76
2022/12/13 01:26:11;;;;;;;26.40;14.82;;;-0.70;99.90;;;-1.96;100.00;99889.56;4168972;28;20025;-75
2022/12/13 01:28:11;;;;;;;26.10;14.40;;;-0.70;99.90;;;-1.96;100.00;99885.22;4168316;28;20077;-75
2022/12/13 01:30:12;;;;;;;29.02;14.90;;;-0.70;99.90;;;-1.99;100.00;99884.59;4169170;28;20022;-75
2022/12/13 01:32:13;;;;;;;30.85;15.38;;;-0.70;99.90;;;-1.96;100.00;99879.22;4169889;28;20022;-75
2022/12/13 01:34:18;;;;;;;27.83;13.60;;;-0.70;99.90;;;-1.96;100.00;99876.63;4152332;28;20029;-75
2022/12/13 01:36:21;;;;;;;31.45;15.35;;;-0.70;99.90;;;-1.97;100.00;99868.06;4165887;28;20036;-75
2022/12/13 01:38:22;;;;;;;31.92;14.23;;;-0.70;99.90;;;-1.96;100.00;99861.13;4168576;28;20029;-75
2022/12/13 01:40:23;;;;;;;31.40;15.15;;;-0.70;99.90;;;-1.92;100.00;99870.34;4168464;28;20032;-75
2022/12/13 01:42:24;;;;;;;32.20;14.88;;;-0.70;99.90;;;-1.96;100.00;99866.31;4169882;28;20041;-75
2022/12/13 01:45:17;;;;;;;29.45;14.38;;;-0.70;99.90;;;-2.01;100.00;99878.69;4169465;28;20530;-75
2022/12/13 01:47:45;;;;;;;24.42;13.23;;;-0.70;99.90;;;-2.06;100.00;99873.00;4168495;28;20039;-75
2022/12/13 01:49:46;;;;;;;29.65;14.52;;;-0.70;99.90;;;-2.04;100.00;99884.06;4168577;28;20037;-75
2022/12/13 01:51:57;;;;;;;31.90;14.50;;;-0.70;99.90;;;-2.13;100.00;99887.22;4169566;28;20444;-75
2022/12/13 01:54:02;;;;;;;31.70;14.75;;;-0.80;99.90;;;-2.19;100.00;99888.44;4168175;28;20061;-75
2022/12/13 01:56:23;;;;;;;30.42;13.52;;;-0.80;99.90;;;-2.20;100.00;99901.44;4168011;28;20029;-75
2022/12/13 01:58:24;;;;;;;25.98;13.57;;;-0.90;99.90;;;-2.21;100.00;99910.13;4168444;28;20029;-75
2022/12/13 02:00:26;;;;;;;29.30;13.57;;;-0.90;99.90;;;-2.20;100.00;99912.59;4168144;28;20030;-75
2022/12/13 02:02:27;;;;;;;30.80;15.15;;;-1.00;99.90;;;-2.24;100.00;99901.63;4169161;28;20034;-75
2022/12/13 02:04:39;;;;;;;30.60;14.30;;;-1.00;99.90;;;-2.29;100.00;99892.53;4169705;28;20095;-75
2022/12/13 02:06:44;;;;;;;30.67;14.85;;;-1.10;99.90;;;-2.34;100.00;99897.16;4168177;28;20101;-75
2022/12/13 02:08:45;;;;;;;29.10;14.13;;;-1.10;99.90;;;-2.26;100.00;99913.81;4167901;28;20036;-75
2022/12/13 02:10:46;;;;;;;32.45;15.25;;;-1.10;99.90;;;-2.36;100.00;99923.06;4151427;28;20018;-75
2022/12/13 02:12:47;;;;;;;31.40;15.55;;;-1.10;99.90;;;-2.38;100.00;99926.66;4167922;28;20036;-75
2022/12/13 02:14:50;;;;;;;30.50;14.63;;;-1.10;99.90;;;-2.41;100.00;99924.25;4150961;28;20046;-75
2022/12/13 02:17:54;;;;;;;31.23;15.35;;;-1.10;99.90;;;-2.40;100.00;99944.00;4167627;28;20025;-75
2022/12/13 02:20:32;;;;;;;29.00;13.35;;;-1.10;99.90;;;-2.48;100.00;99952.22;4151225;28;20483;-75
2022/12/13 02:23:19;;;;;;;26.42;12.88;;;-1.20;99.90;;;-2.49;100.00;99936.81;4160733;28;20029;-75
2022/12/13 02:25:48;;;;;;;25.92;13.55;;;-1.20;99.90;;;-2.52;100.00;99922.34;4169061;28;20021;-75
2022/12/13 02:28:40;;;;;;;31.05;15.18;;;-1.20;99.90;;;-2.51;100.00;99918.84;4169054;28;20060;-75
2022/12/13 02:31:19;;;;;;;27.60;14.43;;;-1.20;99.90;;;-2.53;100.00;99925.84;4147294;28;20073;-75
2022/12/13 02:33:45;;;;;;;27.13;14.10;;;-1.20;99.90;;;-2.53;100.00;99919.84;4137963;28;20124;-75
2022/12/13 02:35:54;;;;;;;29.70;13.57;;;-1.20;99.90;;;-2.51;100.00;99913.66;4168955;28;20029;-75
2022/12/13 02:38:25;;;;;;;30.05;14.77;;;-1.20;99.90;;;-2.53;100.00;99904.38;4167538;28;20112;-75
2022/12/13 02:40:32;;;;;;;31.55;15.13;;;-1.20;99.90;;;-2.48;100.00;99918.66;4167754;28;20030;-75
2022/12/13 02:43:34;;;;;;;26.88;13.95;;;-1.20;99.90;;;-2.51;100.00;99915.44;4167738;28;20477;-76
2022/12/13 02:45:46;;;;;;;30.77;14.23;;;-1.20;99.90;;;-2.52;100.00;99919.78;4168644;28;20032;-75
2022/12/13 02:47:53;;;;;;;31.02;14.82;;;-1.20;99.90;;;-2.46;100.00;99921.16;4167405;28;20029;-75
2022/12/13 02:50:00;;;;;;;29.15;14.73;;;-1.20;99.90;;;-2.47;100.00;99916.91;4167522;28;20467;-75
2022/12/13 02:52:02;;;;;;;27.38;13.75;;;-1.20;99.90;;;-2.47;100.00;99910.00;4167598;28;20534;-75
2022/12/13 02:54:03;;;;;;;31.48;15.27;;;-1.10;99.90;;;-2.48;100.00;99910.91;4167392;28;20511;-75
2022/12/13 02:56:04;;;;;;;29.13;14.70;;;-1.20;99.90;;;-2.48;100.00;99913.47;4145232;28;20106;-75
2022/12/13 02:58:06;;;;;;;33.50;15.43;;;-1.20;99.90;;;-2.51;100.00;99921.41;4158333;28;20359;-75
2022/12/13 03:00:09;;;;;;;33.17;15.20;;;-1.20;99.90;;;-2.50;100.00;99915.34;4167456;28;20033;-75
2022/12/13 03:02:31;;;;;;;29.35;14.80;;;-1.20;99.90;;;-2.51;100.00;99913.66;4167504;28;20028;-75
2022/12/13 03:07:26;;;;;;;29.63;14.95;;;-1.20;99.90;;;-2.53;100.00;99905.19;4167745;28;20408;-75
2022/12/13 03:09:51;;;;;;;32.45;15.38;;;-1.20;99.90;;;-2.54;100.00;99906.09;4151323;28;20085;-75
2022/12/13 03:14:38;;;;;;;27.25;14.38;;;-1.30;99.90;;;-2.53;100.00;99909.53;4168174;28;20122;-75
2022/12/13 03:16:45;;;;;;;29.65;15.10;;;-1.30;99.90;;;-2.58;100.00;99898.66;4168815;28;20075;-75
2022/12/13 03:18:48;;;;;;;31.20;15.55;;;-1.20;99.90;;;-2.57;100.00;99903.72;4167514;28;20428;-75
2022/12/13 03:20:57;;;;;;;31.35;16.10;;;-1.20;99.90;;;-2.53;100.00;99904.38;4167508;28;20025;-75
2022/12/13 03:22:58;;;;;;;28.80;15.48;;;-1.30;99.90;;;-2.55;100.00;99890.72;4167532;28;20030;-75
2022/12/13 03:25:00;;;;;;;29.75;16.20;;;-1.20;99.90;;;-2.56;100.00;99884.72;4168637;28;20049;-75
2022/12/13 03:27:01;;;;;;;25.00;13.93;;;-1.20;99.90;;;-2.53;100.00;99887.13;4170375;28;20029;-75
2022/12/13 03:29:02;;;;;;;29.90;15.98;;;-1.20;99.90;;;-2.54;100.00;99893.19;4170658;28;20025;-75
2022/12/13 03:31:03;;;;;;;31.10;14.98;;;-1.20;99.90;;;-2.51;100.00;99882.69;4169772;28;20037;-75
2022/12/13 03:33:04;;;;;;;30.10;16.10;;;-1.20;99.90;;;-2.48;100.00;99892.81;4170237;28;20026;-75
2022/12/13 03:35:06;;;;;;;32.05;15.02;;;-1.30;99.90;;;-2.53;100.00;99881.13;4159469;28;20033;-75
2022/12/13 03:37:07;;;;;;;26.38;14.95;;;-1.30;99.90;;;-2.57;100.00;99875.31;4170299;28;20033;-75
2022/12/13 03:39:07;;;;;;;31.08;15.23;;;-1.30;99.90;;;-2.57;100.00;99885.66;4153847;28;20029;-75
2022/12/13 03:41:13;;;;;;;29.10;14.45;;;-1.20;99.90;;;-2.58;100.00;99875.44;4168639;28;20029;-75
2022/12/13 03:43:14;;;;;;;33.03;15.25;;;-1.30;99.90;;;-2.49;100.00;99874.84;4171648;28;20079;-75
2022/12/13 03:45:17;;;;;;;35.00;17.23;;;-1.30;99.90;;;-2.56;100.00;99883.91;4170130;28;20049;-76
2022/12/13 03:47:18;;;;;;;30.40;16.25;;;-1.30;99.90;;;-2.54;100.00;99887.25;4171368;28;20020;-75
2022/12/13 03:49:19;;;;;;;30.35;15.13;;;-1.30;99.90;;;-2.56;100.00;99889.91;4171149;28;20033;-75
2022/12/13 03:51:20;;;;;;;32.83;15.63;;;-1.30;99.90;;;-2.60;100.00;99887.63;4171355;28;20033;-75
2022/12/13 03:53:22;;;;;;;27.02;14.50;;;-1.30;99.90;;;-2.66;100.00;99886.25;4153586;28;20120;-75
2022/12/13 03:55:23;;;;;;;30.65;15.48;;;-1.30;99.90;;;-2.61;100.00;99889.34;4169937;28;20563;-75
2022/12/13 03:57:24;;;;;;;27.05;14.75;;;-1.40;99.90;;;-2.69;100.00;99878.69;4171089;28;20112;-75
2022/12/13 03:59:26;;;;;;;30.50;15.02;;;-1.40;99.90;;;-2.78;100.00;99872.31;4186365;28;20025;-75
2022/12/13 04:01:27;;;;;;;30.10;15.55;;;-1.50;99.90;;;-2.79;100.00;99867.25;4171014;28;20030;-75
2022/12/13 04:03:28;;;;;;;31.45;15.32;;;-1.50;99.90;;;-2.86;100.00;99863.38;4171206;28;20488;-75
2022/12/13 04:05:29;;;;;;;35.45;15.60;;;-1.60;99.90;;;-2.89;100.00;99866.13;4171302;28;20037;-75
2022/12/13 04:07:30;;;;;;;31.15;15.68;;;-1.60;99.90;;;-2.93;100.00;99877.59;4153407;28;20516;-75
2022/12/13 04:09:31;;;;;;;28.23;15.63;;;-1.60;99.90;;;-3.05;100.00;99873.16;4171236;28;20038;-75
2022/12/13 04:13:53;;;;;;;28.27;14.68;;;-1.70;99.90;;;-3.09;100.00;99884.56;4170779;28;20044;-75
2022/12/13 04:15:54;;;;;;;32.80;15.50;;;-1.80;99.90;;;-3.14;100.00;99879.69;4159995;28;20076;-75
2022/12/13 04:17:55;;;;;;;28.83;15.27;;;-1.80;99.90;;;-3.14;100.00;99884.03;4169755;28;20033;-75
2022/12/13 04:19:56;;;;;;;31.60;17.00;;;-1.90;99.90;;;-3.21;100.00;99880.13;4167599;28;20036;-75
2022/12/13 04:21:57;;;;;;;28.02;15.93;;;-1.90;99.90;;;-3.12;100.00;99902.81;4170032;28;20085;-75
2022/12/13 04:23:57;;;;;;;37.50;16.10;;;-1.90;99.90;;;-3.31;100.00;99894.47;4170982;28;20396;-75
2022/12/13 04:25:59;;;;;;;31.13;15.02;;;-1.90;99.90;;;-3.28;100.00;99904.59;4170980;28;20057;-75
2022/12/13 04:28:00;;;;;;;35.70;15.93;;;-2.00;99.90;;;-3.36;100.00;99912.81;4169575;28;20029;-75
2022/12/13 04:30:01;;;;;;;31.00;16.65;;;-2.00;99.90;;;-3.38;100.00;99919.81;4169363;28;20044;-75
2022/12/13 04:32:03;;;;;;;32.00;16.33;;;-2.10;99.90;;;-3.44;100.00;99920.16;4169701;28;20051;-75
2022/12/13 04:34:04;;;;;;;30.50;16.02;;;-2.10;99.90;;;-3.46;100.00;99925.38;4170679;28;20052;-75
2022/12/13 04:36:06;;;;;;;35.58;16.88;;;-2.10;99.90;;;-3.43;100.00;99924.38;4170539;28;20033;-75
2022/12/13 04:38:07;;;;;;;33.65;16.85;;;-2.10;99.90;;;-3.46;100.00;99933.13;4170642;28;20036;-75
2022/12/13 04:40:08;;;;;;;32.85;16.70;;;-2.20;99.90;;;-3.46;100.00;99940.84;4169744;28;20030;-75
2022/12/13 04:42:10;;;;;;;35.20;17.08;;;-2.20;99.90;;;-3.49;100.00;99941.03;4152845;28;20092;-75
2022/12/13 04:44:10;;;;;;;35.10;17.27;;;-2.20;99.90;;;-3.48;100.00;99954.75;4169406;28;20205;-75
2022/12/13 04:46:11;;;;;;;31.55;15.10;;;-2.20;99.90;;;-3.53;100.00;99955.03;4170259;28;20030;-75
2022/12/13 04:48:12;;;;;;;32.90;16.35;;;-2.20;99.90;;;-3.53;100.00;99954.19;4170524;28;20029;-75
2022/12/13 04:50:13;;;;;;;33.28;15.43;;;-2.20;99.90;;;-3.56;100.00;99949.22;4169357;28;20116;-75
2022/12/13 04:52:14;;;;;;;32.10;16.10;;;-2.20;99.90;;;-3.56;100.00;99947.47;4169215;28;20089;-75
2022/12/13 04:54:15;;;;;;;32.20;15.35;;;-2.30;99.90;;;-3.52;100.00;99948.94;4170356;28;20025;-75
2022/12/13 04:56:16;;;;;;;34.13;15.95;;;-2.30;99.90;;;-3.54;100.00;99945.63;4170411;28;20022;-75
2022/12/13 04:58:17;;;;;;;34.10;16.05;;;-2.30;99.90;;;-3.57;100.00;99947.53;4170297;28;20053;-75
2022/12/13 05:00:20;;;;;;;32.97;16.40;;;-2.30;99.90;;;-3.63;100.00;99942.72;4170038;28;20025;-75
2022/12/13 05:02:21;;;;;;;33.42;15.77;;;-2.30;99.90;;;-3.56;100.00;99937.16;4169863;28;20107;-75
2022/12/13 05:04:22;;;;;;;30.73;16.08;;;-2.30;99.90;;;-3.62;100.00;99945.25;4170274;28;20033;-75
2022/12/13 05:06:24;;;;;;;34.38;16.70;;;-2.30;99.90;;;-3.61;100.00;99943.47;4169006;28;20104;-75
2022/12/13 05:08:24;;;;;;;39.03;18.17;;;-2.30;99.90;;;-3.63;100.00;99945.31;4170251;28;20112;-75
2022/12/13 05:10:25;;;;;;;32.67;16.83;;;-2.30;99.90;;;-3.66;100.00;99938.59;4169795;28;20488;-75
2022/12/13 05:12:26;;;;;;;36.03;17.95;;;-2.30;99.90;;;-3.62;100.00;99954.72;4169104;28;20018;-75
2022/12/13 05:14:31;;;;;;;34.42;16.75;;;-2.30;99.90;;;-3.74;100.00;99943.34;4169875;28;20077;-75
2022/12/13 05:16:32;;;;;;;32.00;17.63;;;-2.40;99.90;;;-3.70;100.00;99949.97;4170042;28;20053;-75
2022/12/13 05:18:35;;;;;;;35.75;17.38;;;-2.40;99.90;;;-3.71;100.00;99945.75;4169769;28;20036;-75
2022/12/13 05:20:38;;;;;;;35.28;16.40;;;-2.40;99.90;;;-3.73;100.00;99939.84;4168759;28;20029;-75
2022/12/13 05:22:39;;;;;;;33.33;16.08;;;-2.50;99.90;;;-3.80;100.00;99924.81;4169911;28;20057;-75
2022/12/13 05:24:42;;;;;;;38.53;17.25;;;-2.50;99.90;;;-3.84;100.00;99931.88;4169936;28;20028;-75
2022/12/13 05:26:42;;;;;;;34.88;17.77;;;-2.50;99.90;;;-3.86;100.00;99932.88;4168486;28;20029;-75
2022/12/13 05:28:43;;;;;;;32.25;16.75;;;-2.50;99.90;;;-3.83;100.00;99937.88;4169972;28;20108;-75
2022/12/13 05:30:44;;;;;;;31.17;17.40;;;-2.50;99.90;;;-3.89;100.00;99939.03;4168321;28;20033;-75
2022/12/13 05:32:45;;;;;;;42.08;18.80;;;-2.60;99.90;;;-3.85;100.00;99942.28;4168538;28;20104;-75
2022/12/13 05:34:46;;;;;;;34.33;17.58;;;-2.60;99.90;;;-3.86;100.00;99938.88;4169518;28;20029;-75
2022/12/13 05:36:47;;;;;;;37.65;17.27;;;-2.60;99.90;;;-3.88;100.00;99945.03;4168543;28;20029;-75
2022/12/13 05:38:48;;;;;;;36.30;16.63;;;-2.60;99.90;;;-3.94;100.00;99943.59;4169657;28;20029;-75
2022/12/13 05:40:49;;;;;;;31.88;16.77;;;-2.60;99.90;;;-3.94;100.00;99930.72;4168440;28;20079;-75
2022/12/13 05:42:50;;;;;;;35.80;17.33;;;-2.60;99.90;;;-3.89;100.00;99940.78;4168257;28;20493;-75
2022/12/13 05:44:52;;;;;;;34.95;17.25;;;-2.60;99.90;;;-3.91;100.00;99938.28;4169578;28;20029;-75
2022/12/13 05:46:53;;;;;;;30.85;16.35;;;-2.60;99.90;;;-3.95;100.00;99935.06;4169534;28;20025;-75
2022/12/13 05:48:53;;;;;;;33.55;16.67;;;-2.60;99.90;;;-3.92;100.00;99923.75;4169330;28;20036;-75
2022/12/13 05:50:54;;;;;;;34.85;16.77;;;-2.60;99.90;;;-3.95;100.00;99914.47;4169263;28;20374;-75
2022/12/13 05:52:55;;;;;;;35.00;16.63;;;-2.60;99.90;;;-3.94;100.00;99907.53;4168365;28;20018;-75
2022/12/13 05:54:56;;;;;;;36.08;17.23;;;-2.60;99.90;;;-3.93;100.00;99909.19;4168354;28;20057;-75
2022/12/13 05:56:57;;;;;;;33.60;16.58;;;-2.60;99.90;;;-3.87;100.00;99911.44;4169734;28;20045;-75
2022/12/13 05:58:59;;;;;;;35.97;16.88;;;-2.60;99.90;;;-3.91;100.00;99907.38;4168279;28;20029;-75
2022/12/13 06:01:12;;;;;;;34.67;15.25;;;-2.60;99.90;;;-3.83;100.00;99902.63;4167728;28;20041;-75
2022/12/13 06:03:13;;;;;;;34.28;16.98;;;-2.50;99.90;;;-3.91;100.00;99899.63;4142900;28;20033;-75
2022/12/13 06:05:14;;;;;;;32.97;16.55;;;-2.50;99.90;;;-3.87;100.00;99884.84;4184403;28;20404;-75
2022/12/13 06:07:15;;;;;;;37.38;17.33;;;-2.50;99.90;;;-3.77;100.00;99899.72;4169248;28;20439;-75
2022/12/13 06:09:16;;;;;;;32.40;17.23;;;-2.50;99.90;;;-3.73;100.00;99901.19;4163767;28;20042;-75
2022/12/13 06:11:17;;;;;;;31.77;16.92;;;-2.40;99.90;;;-3.68;100.00;99904.34;4161696;28;20541;-75
2022/12/13 06:13:18;;;;;;;32.83;17.65;;;-2.30;99.90;;;-3.62;100.00;99914.31;4167958;28;20029;-75
2022/12/13 06:15:20;;;;;;;36.97;16.80;;;-2.30;99.90;;;-3.61;100.00;99907.38;4167243;28;20046;-75
2022/12/13 06:17:23;;;;;;;36.33;16.85;;;-2.20;99.90;;;-3.55;100.00;99901.88;4167952;28;20029;-75
2022/12/13 06:19:24;;;;;;;35.10;17.88;;;-2.30;99.90;;;-3.57;100.00;99891.66;4167838;28;20049;-75
2022/12/13 06:21:25;;;;;;;34.50;17.75;;;-2.30;99.90;;;-3.50;100.00;99899.88;4167830;28;20460;-75
2022/12/13 06:23:28;;;;;;;37.88;17.77;;;-2.20;99.90;;;-3.51;100.00;99896.47;4168837;28;20033;-75
2022/12/13 06:25:29;;;;;;;30.02;16.70;;;-2.30;99.90;;;-3.57;100.00;99890.84;4168988;28;20048;-75
2022/12/13 06:27:30;;;;;;;34.20;16.98;;;-2.20;99.90;;;-3.58;100.00;99892.56;4167874;28;20405;-75
2022/12/13 06:29:31;;;;;;;35.40;17.67;;;-2.20;99.90;;;-3.66;100.00;99879.31;4168656;28;20087;-75
2022/12/13 06:31:31;;;;;;;32.80;18.10;;;-2.30;99.90;;;-3.61;100.00;99890.19;4168500;28;20059;-75
2022/12/13 06:33:35;;;;;;;34.60;17.38;;;-2.30;99.90;;;-3.63;100.00;99881.72;4168918;28;20079;-75
2022/12/13 06:35:36;;;;;;;32.73;17.20;;;-2.30;99.90;;;-3.63;100.00;99875.72;4167914;28;20025;-75
2022/12/13 06:37:37;;;;;;;40.08;17.85;;;-2.30;99.90;;;-3.69;100.00;99876.91;4167524;28;20033;-75
2022/12/13 06:39:39;;;;;;;33.17;17.35;;;-2.30;99.90;;;-3.67;100.00;99876.81;4167590;28;20060;-75
2022/12/13 06:41:40;;;;;;;42.15;20.05;;;-2.40;99.90;;;-3.74;100.00;99881.50;4167712;28;20026;-75
2022/12/13 06:43:44;;;;;;;37.75;18.27;;;-2.40;99.90;;;-3.78;100.00;99874.84;4167684;28;20033;-75
2022/12/13 06:45:45;;;;;;;33.37;17.60;;;-2.40;99.90;;;-3.81;100.00;99872.44;4167368;28;20108;-75
2022/12/13 06:47:46;;;;;;;35.58;17.88;;;-2.40;99.90;;;-3.80;100.00;99881.03;4168551;28;20029;-75
2022/12/13 06:49:47;;;;;;;32.80;17.25;;;-2.50;99.90;;;-3.78;100.00;99890.31;4168679;28;20385;-75
2022/12/13 06:51:48;;;;;;;35.38;16.80;;;-2.50;99.90;;;-3.80;100.00;99897.31;4168884;28;20083;-75
2022/12/13 06:53:49;;;;;;;32.60;16.27;;;-2.50;99.90;;;-3.80;100.00;99905.03;4168485;28;20497;-75
2022/12/13 06:55:50;;;;;;;36.17;19.30;;;-2.50;99.90;;;-3.80;100.00;99912.78;4168410;28;20021;-75
2022/12/13 06:57:50;;;;;;;34.78;17.05;;;-2.50;99.90;;;-3.81;100.00;99911.09;4167323;28;20021;-75
2022/12/13 06:59:51;;;;;;;33.80;17.17;;;-2.50;99.90;;;-3.89;100.00;99892.69;4167494;28;20033;-75
2022/12/13 07:01:52;;;;;;;35.92;17.85;;;-2.50;99.90;;;-3.88;100.00;99902.03;4171016;28;20026;-75
2022/12/13 07:03:56;;;;;;;37.20;18.45;;;-2.60;99.90;;;-3.89;100.00;99902.16;4169937;28;20030;-75
2022/12/13 07:06:06;;;;;;;39.08;16.15;;;-2.50;99.90;;;-3.83;100.00;99912.94;4154335;28;20115;-75
2022/12/13 07:08:06;;;;;;;33.38;17.13;;;-2.50;99.90;;;-3.81;100.00;99926.56;4163484;28;20064;-75
2022/12/13 07:10:08;;;;;;;36.80;16.65;;;-2.50;99.90;;;-3.87;100.00;99920.91;4171856;28;20029;-75
2022/12/13 07:12:09;;;;;;;35.97;16.27;;;-2.60;99.90;;;-3.94;100.00;99917.84;4171553;28;20040;-75
2022/12/13 07:14:10;;;;;;;37.55;17.55;;;-2.60;99.90;;;-3.98;100.00;99919.78;4170260;28;20021;-75
2022/12/13 07:16:12;;;;;;;32.00;18.08;;;-2.60;99.90;;;-3.92;100.00;99928.91;4171112;28;20617;-75
2022/12/13 07:18:13;;;;;;;33.90;17.58;;;-2.60;99.90;;;-3.86;100.00;99928.56;4170494;28;20025;-75
2022/12/13 07:20:14;;;;;;;35.30;18.58;;;-2.60;99.90;;;-3.89;100.00;99923.59;4171673;28;20029;-75
2022/12/13 07:22:15;;;;;;;33.00;17.10;;;-2.60;99.90;;;-3.92;100.00;99934.06;4171796;28;20022;-75
2022/12/13 07:24:16;;;;;;;36.35;17.45;;;-2.60;99.90;;;-3.96;100.00;99932.56;4171758;28;20511;-75
2022/12/13 07:26:18;;;;;;;36.55;17.70;;;-2.60;99.90;;;-4.02;100.00;99926.00;4154221;28;20025;-75
2022/12/13 07:28:20;;;;;;;31.98;17.27;;;-2.60;99.90;;;-3.98;100.00;99930.09;4170353;28;20025;-75
2022/12/13 07:30:21;;;;;;;35.58;17.77;;;-2.70;99.90;;;-3.97;100.00;99930.88;4171369;28;20043;-75
2022/12/13 07:32:22;;;;;;;32.53;17.42;;;-2.70;99.90;;;-3.97;100.00;99938.63;4171640;28;20393;-75
2022/12/13 07:34:23;;;;;;;34.05;17.30;;;-2.70;99.90;;;-4.00;100.00;99931.88;4171568;28;20076;-75
2022/12/13 07:36:23;;;;;;;34.78;18.65;;;-2.70;99.90;;;-3.98;100.00;99926.66;4171382;28;20034;-75
2022/12/13 07:38:24;;;;;;;35.00;17.63;;;-2.70;99.90;;;-3.99;100.00;99922.44;4170390;28;20047;-75
2022/12/13 07:40:25;;;;;;;30.85;16.23;;;-2.70;99.90;;;-4.04;100.00;99919.28;4170393;28;20029;-75
2022/12/13 07:42:26;;;;;;;36.78;16.88;;;-2.70;99.90;;;-4.05;100.00;99912.47;4171454;28;20079;-75
2022/12/13 07:44:27;;;;;;;34.28;17.75;;;-2.70;99.90;;;-4.02;100.00;99912.28;4169945;28;20096;-75
2022/12/13 07:46:28;;;;;;;34.20;18.40;;;-2.80;99.90;;;-3.98;100.00;99904.31;4171628;28;20036;-75
2022/12/13 07:48:29;;;;;;;34.03;17.23;;;-2.70;99.90;;;-4.02;100.00;99896.84;4186600;28;20029;-75
2022/12/13 07:50:31;;;;;;;34.13;16.63;;;-2.70;99.90;;;-3.97;100.00;99905.97;4171328;28;20033;-75
2022/12/13 07:52:32;;;;;;;37.33;18.08;;;-2.60;99.90;;;-3.93;100.00;99909.19;4171155;28;20021;-75
2022/12/13 07:54:33;;;;;;;30.40;16.90;;;-2.60;99.90;;;-3.91;100.00;99902.22;4170049;28;20062;-75
2022/12/13 07:56:35;;;;;;;34.85;17.70;;;-2.60;99.90;;;-3.87;100.00;99910.59;4170079;28;20018;-75
2022/12/13 07:58:37;;;;;;;36.47;18.30;;;-2.60;99.90;;;-3.86;100.00;99897.66;4171226;28;20032;-75
2022/12/13 08:00:41;;;;;;;33.25;17.30;;;-2.60;99.90;;;-3.81;100.00;99908.53;4169663;28;20118;-75
2022/12/13 08:02:42;;;;;;;42.60;19.02;;;-2.50;99.90;;;-3.76;100.00;99895.41;4170163;28;20037;-75
2022/12/13 08:04:43;;;;;;;35.85;18.13;;;-2.40;99.90;;;-3.73;100.00;99897.81;4171274;28;20037;-75
2022/12/13 08:06:44;;;;;;;38.25;18.52;;;-2.40;99.90;;;-3.65;100.00;99906.75;4171068;28;20508;-75
2022/12/13 08:08:45;;;;;;;35.72;18.52;;;-2.30;99.90;;;-3.59;100.00;99898.69;4169719;28;20091;-75
2022/12/13 08:10:46;;;;;;;35.25;18.10;;;-2.30;99.90;;;-3.51;100.00;99898.22;4170272;28;20040;-74
2022/12/13 08:12:48;;;;;;;34.85;17.00;;;-2.20;99.90;;;-3.40;100.00;99912.16;4186471;28;20025;-75
2022/12/13 08:14:50;;;;;;;39.20;17.67;;;-2.10;99.90;;;-3.34;100.00;99907.56;4160858;28;20058;-75
2022/12/13 08:16:50;;;;;;;34.40;18.08;;;-2.00;99.90;;;-3.15;100.00;99927.03;4169699;28;20018;-75
2022/12/13 08:18:52;;;;;;;33.10;17.13;;;-1.90;99.90;;;-3.04;100.00;99924.63;4171012;28;20029;-75
2022/12/13 08:21:04;;;;;;;33.95;17.48;;;-1.80;99.90;;;-2.90;100.00;99921.25;4170940;28;20060;-75
2022/12/13 08:23:05;;;;;;;33.72;17.88;;;-1.60;99.90;;;-2.80;100.00;99910.28;4169793;28;20040;-75
2022/12/13 08:25:07;;;;;;;34.67;16.95;;;-1.50;99.90;;;-2.64;100.00;99937.75;4170644;28;20030;-75
2022/12/13 08:27:08;;;;;;;32.13;15.82;;;-1.40;99.90;;;-2.55;100.00;99927.72;4170734;28;20041;-75
2022/12/13 08:29:10;;;;;;;33.67;17.20;;;-1.30;99.90;;;-2.38;100.00;99944.75;4170741;28;20081;-74
2022/12/13 08:31:13;;;;;;;33.15;17.00;;;-1.20;99.90;;;-2.22;100.00;99945.47;4170485;28;20043;-75
2022/12/13 08:33:14;;;;;;;33.72;17.73;;;-1.00;99.90;;;-2.15;100.00;99943.34;4170702;28;20477;-75